Aurora Boreal — CUQY3 — position and weather

sailwx.info

Track history (hours):
 
Tides and Currents Weather Stations Pressure Air Temp Water Temp Dewpoint Dewpoint Depression Visibility Wind Speed Wind Dir Waves Ship Positions

Aurora Boreal

Last reported at 2017-Sep-14 18:50 UTC. Time now 2017-Sep-22 10:13 UTC.
Position N 36°40' W 008°12'.

Length 26 m; draft 3 m.

Type: Fishing. MMSI: 263406940.

Date/timePositionNaut miles runAvg speedWind from/ knotsBaromVisibWave heightAir tempDewpointWater temp
2017-Sep-14 18:50N 36°40' W 008°12'1 2.5
2017-Sep-14 18:30N 36°40' W 008°13'2 2.4
2017-Sep-14 17:43N 36°40' W 008°15'1 2.4
2017-Sep-14 17:29N 36°40' W 008°16'1 2.4
2017-Sep-14 17:00N 36°39' W 008°17'1 2.3
2017-Sep-14 16:30N 36°39' W 008°19'1 2.3
2017-Sep-14 15:56N 36°39' W 008°21'7 2.6
2017-Sep-14 13:24N 36°41' W 008°29'1 1.3
2017-Sep-14 12:34N 36°40' W 008°27'0 2.9
2017-Sep-14 12:29N 36°40' W 008°27'1 2.7
2017-Sep-14 11:58N 36°40' W 008°25'4 0.3
2017-Sep-13 21:49N 36°39' W 008°21'1 2.7
2017-Sep-13 21:26N 36°39' W 008°20'1 2.8
2017-Sep-13 20:56N 36°40' W 008°18'12 3.0
2017-Sep-13 16:56N 36°49' W 008°09'14 0.9
2017-Sep-13 01:16N 36°39' W 008°21'1 2.7
2017-Sep-13 00:53N 36°39' W 008°19'1 2.7
2017-Sep-13 00:29N 36°39' W 008°18'4 2.8
2017-Sep-12 23:06N 36°40' W 008°13'0 2.7
2017-Sep-12 23:00N 36°40' W 008°13'2 2.7
2017-Sep-12 22:27N 36°40' W 008°11'7 4.1
2017-Sep-12 20:43N 36°47' W 008°08'1 2.6
2017-Sep-12 20:30N 36°47' W 008°08'1 2.8
2017-Sep-12 20:00N 36°47' W 008°06'4 3.6
2017-Sep-12 18:52N 36°51' W 008°04'0 1.2
2017-Sep-12 18:31N 36°51' W 008°03'1 2.8
2017-Sep-12 18:00N 36°51' W 008°02'  
2017-Sep-09 21:08N 36°49' W 008°04'  
Track history (hours):
 
Tides and Currents Weather Stations Pressure Air Temp Water Temp Dewpoint Dewpoint Depression Visibility Wind Speed Wind Dir Waves Ship Positions

Aurora Boreal

Last reported at 2017-Sep-14 18:50 UTC. Time now 2017-Sep-22 10:13 UTC.
Position N 36°40' W 008°12'.

Length 26 m; draft 3 m.

Type: Fishing. MMSI: 263406940.

Date/timePositionNaut miles runAvg speedWind from/ knotsBaromVisibWave heightAir tempDewpointWater temp
2017-Sep-14 18:50N 36°40' W 008°12'1 2.5
2017-Sep-14 18:30N 36°40' W 008°13'2 2.4
2017-Sep-14 17:43N 36°40' W 008°15'1 2.4
2017-Sep-14 17:29N 36°40' W 008°16'1 2.4
2017-Sep-14 17:00N 36°39' W 008°17'1 2.3
2017-Sep-14 16:30N 36°39' W 008°19'1 2.3
2017-Sep-14 15:56N 36°39' W 008°21'7 2.6
2017-Sep-14 13:24N 36°41' W 008°29'1 1.3
2017-Sep-14 12:34N 36°40' W 008°27'0 2.9
2017-Sep-14 12:29N 36°40' W 008°27'1 2.7
2017-Sep-14 11:58N 36°40' W 008°25'4 0.3
2017-Sep-13 21:49N 36°39' W 008°21'1 2.7
2017-Sep-13 21:26N 36°39' W 008°20'1 2.8
2017-Sep-13 20:56N 36°40' W 008°18'12 3.0
2017-Sep-13 16:56N 36°49' W 008°09'14 0.9
2017-Sep-13 01:16N 36°39' W 008°21'1 2.7
2017-Sep-13 00:53N 36°39' W 008°19'1 2.7
2017-Sep-13 00:29N 36°39' W 008°18'4 2.8
2017-Sep-12 23:06N 36°40' W 008°13'0 2.7
2017-Sep-12 23:00N 36°40' W 008°13'2 2.7
2017-Sep-12 22:27N 36°40' W 008°11'7 4.1
2017-Sep-12 20:43N 36°47' W 008°08'1 2.6
2017-Sep-12 20:30N 36°47' W 008°08'1 2.8
2017-Sep-12 20:00N 36°47' W 008°06'4 3.6
2017-Sep-12 18:52N 36°51' W 008°04'0 1.2
2017-Sep-12 18:31N 36°51' W 008°03'1 2.8
2017-Sep-12 18:00N 36°51' W 008°02'  
2017-Sep-09 21:08N 36°49' W 008°04'  

Dump ship's entire track history